sensor_id;sensor_type;location;lat;lon;timestamp;pressure;altitude;pressure_sealevel;temperature;humidity
32237;BME280;18726;44.732;10.550;2023-11-21T00:02:53;100525.72;;;16.77;100.00
32237;BME280;18726;44.732;10.550;2023-11-21T00:05:57;100528.84;;;16.94;100.00
32237;BME280;18726;44.732;10.550;2023-11-21T00:09:01;100541.38;;;17.23;100.00
32237;BME280;18726;44.732;10.550;2023-11-21T00:12:06;100529.59;;;17.19;99.80
32237;BME280;18726;44.732;10.550;2023-11-21T00:15:13;100520.19;;;16.35;96.59
32237;BME280;18726;44.732;10.550;2023-11-21T00:18:16;100512.16;;;15.73;100.00
32237;BME280;18726;44.732;10.550;2023-11-21T00:21:20;100512.69;;;15.24;100.00
32237;BME280;18726;44.732;10.550;2023-11-21T00:24:24;100497.28;;;14.98;100.00
32237;BME280;18726;44.732;10.550;2023-11-21T00:27:28;100500.03;;;15.05;100.00
32237;BME280;18726;44.732;10.550;2023-11-21T00:30:31;100490.53;;;14.84;100.00
32237;BME280;18726;44.732;10.550;2023-11-21T00:33:35;100477.53;;;14.71;100.00
32237;BME280;18726;44.732;10.550;2023-11-21T00:36:40;100464.34;;;14.83;100.00
32237;BME280;18726;44.732;10.550;2023-11-21T00:39:43;100447.13;;;14.32;100.00
32237;BME280;18726;44.732;10.550;2023-11-21T00:42:47;100427.94;;;13.88;100.00
32237;BME280;18726;44.732;10.550;2023-11-21T00:45:51;100410.72;;;13.80;100.00
32237;BME280;18726;44.732;10.550;2023-11-21T00:48:55;100394.03;;;13.51;100.00
32237;BME280;18726;44.732;10.550;2023-11-21T00:51:59;100397.31;;;13.68;100.00
32237;BME280;18726;44.732;10.550;2023-11-21T00:55:04;100393.44;;;13.69;100.00
32237;BME280;18726;44.732;10.550;2023-11-21T00:58:11;100407.41;;;14.45;100.00
32237;BME280;18726;44.732;10.550;2023-11-21T01:01:16;100422.78;;;15.29;100.00
32237;BME280;18726;44.732;10.550;2023-11-21T01:04:19;100457.03;;;15.88;100.00
32237;BME280;18726;44.732;10.550;2023-11-21T01:07:23;100477.84;;;16.21;100.00
32237;BME280;18726;44.732;10.550;2023-11-21T01:10:27;100483.78;;;16.41;100.00
32237;BME280;18726;44.732;10.550;2023-11-21T01:13:31;100483.38;;;16.57;100.00
32237;BME280;18726;44.732;10.550;2023-11-21T01:16:36;100478.22;;;16.02;100.00
32237;BME280;18726;44.732;10.550;2023-11-21T01:19:41;100470.66;;;15.64;100.00
32237;BME280;18726;44.732;10.550;2023-11-21T01:22:44;100469.88;;;15.67;100.00
32237;BME280;18726;44.732;10.550;2023-11-21T01:25:49;100479.34;;;15.80;100.00
32237;BME280;18726;44.732;10.550;2023-11-21T01:28:54;100476.28;;;16.13;100.00
32237;BME280;18726;44.732;10.550;2023-11-21T01:31:58;100472.34;;;16.07;100.00
32237;BME280;18726;44.732;10.550;2023-11-21T01:35:02;100466.78;;;15.72;100.00
32237;BME280;18726;44.732;10.550;2023-11-21T01:38:06;100465.16;;;15.60;100.00
32237;BME280;18726;44.732;10.550;2023-11-21T01:41:11;100459.38;;;15.83;100.00
32237;BME280;18726;44.732;10.550;2023-11-21T01:44:17;100459.44;;;16.11;100.00
32237;BME280;18726;44.732;10.550;2023-11-21T01:47:22;100470.44;;;16.36;100.00
32237;BME280;18726;44.732;10.550;2023-11-21T01:50:26;100472.84;;;16.66;100.00
32237;BME280;18726;44.732;10.550;2023-11-21T01:53:31;100463.78;;;16.83;100.00
32237;BME280;18726;44.732;10.550;2023-11-21T01:56:35;100456.72;;;16.97;100.00
32237;BME280;18726;44.732;10.550;2023-11-21T01:59:40;100458.28;;;17.01;100.00
32237;BME280;18726;44.732;10.550;2023-11-21T02:02:46;100462.16;;;17.14;100.00
32237;BME280;18726;44.732;10.550;2023-11-21T02:05:49;100460.97;;;17.19;100.00
32237;BME280;18726;44.732;10.550;2023-11-21T02:08:53;100465.75;;;16.76;100.00
32237;BME280;18726;44.732;10.550;2023-11-21T02:11:58;100474.75;;;16.98;100.00
32237;BME280;18726;44.732;10.550;2023-11-21T02:15:03;100464.13;;;17.14;100.00
32237;BME280;18726;44.732;10.550;2023-11-21T02:18:18;100474.66;;;17.33;100.00
32237;BME280;18726;44.732;10.550;2023-11-21T02:21:23;100471.47;;;17.45;100.00
32237;BME280;18726;44.732;10.550;2023-11-21T02:24:28;100460.53;;;17.38;100.00
32237;BME280;18726;44.732;10.550;2023-11-21T02:27:32;100446.53;;;16.86;98.54
32237;BME280;18726;44.732;10.550;2023-11-21T02:30:35;100434.81;;;16.33;100.00
32237;BME280;18726;44.732;10.550;2023-11-21T02:33:40;100428.47;;;15.79;100.00
32237;BME280;18726;44.732;10.550;2023-11-21T02:36:44;100419.78;;;15.56;100.00
32237;BME280;18726;44.732;10.550;2023-11-21T02:39:49;100425.09;;;15.24;100.00
32237;BME280;18726;44.732;10.550;2023-11-21T02:42:53;100425.28;;;15.63;100.00
32237;BME280;18726;44.732;10.550;2023-11-21T02:45:57;100424.59;;;16.23;100.00
32237;BME280;18726;44.732;10.550;2023-11-21T02:49:04;100427.75;;;16.53;100.00
32237;BME280;18726;44.732;10.550;2023-11-21T02:52:09;100426.59;;;16.40;100.00
32237;BME280;18726;44.732;10.550;2023-11-21T02:55:13;100435.59;;;16.15;100.00
32237;BME280;18726;44.732;10.550;2023-11-21T02:58:17;100430.88;;;16.09;100.00
32237;BME280;18726;44.732;10.550;2023-11-21T03:01:20;100437.06;;;15.77;100.00
32237;BME280;18726;44.732;10.550;2023-11-21T03:04:24;100427.59;;;15.53;100.00
32237;BME280;18726;44.732;10.550;2023-11-21T03:07:27;100418.69;;;15.85;100.00
32237;BME280;18726;44.732;10.550;2023-11-21T03:10:31;100416.00;;;16.20;100.00
32237;BME280;18726;44.732;10.550;2023-11-21T03:13:35;100418.34;;;16.22;100.00
32237;BME280;18726;44.732;10.550;2023-11-21T03:16:38;100408.94;;;15.98;100.00
32237;BME280;18726;44.732;10.550;2023-11-21T03:19:44;100410.44;;;15.74;100.00
32237;BME280;18726;44.732;10.550;2023-11-21T03:22:47;100407.69;;;15.57;100.00
32237;BME280;18726;44.732;10.550;2023-11-21T03:25:52;100397.75;;;15.31;100.00
32237;BME280;18726;44.732;10.550;2023-11-21T03:28:55;100393.06;;;15.31;100.00
32237;BME280;18726;44.732;10.550;2023-11-21T03:32:00;100391.59;;;15.51;100.00
32237;BME280;18726;44.732;10.550;2023-11-21T03:35:04;100388.03;;;15.44;100.00
32237;BME280;18726;44.732;10.550;2023-11-21T03:38:09;100389.66;;;15.56;100.00
32237;BME280;18726;44.732;10.550;2023-11-21T03:41:13;100385.38;;;15.62;100.00
32237;BME280;18726;44.732;10.550;2023-11-21T03:44:17;100384.59;;;15.58;100.00
32237;BME280;18726;44.732;10.550;2023-11-21T03:47:22;100388.50;;;15.57;100.00
32237;BME280;18726;44.732;10.550;2023-11-21T03:50:26;100390.75;;;15.40;100.00
32237;BME280;18726;44.732;10.550;2023-11-21T03:53:30;100380.59;;;15.37;100.00
32237;BME280;18726;44.732;10.550;2023-11-21T03:56:33;100385.25;;;15.26;100.00
32237;BME280;18726;44.732;10.550;2023-11-21T03:59:41;100393.06;;;15.24;100.00
32237;BME280;18726;44.732;10.550;2023-11-21T04:02:45;100385.19;;;15.15;100.00
32237;BME280;18726;44.732;10.550;2023-11-21T04:05:49;100393.09;;;15.38;100.00
32237;BME280;18726;44.732;10.550;2023-11-21T04:08:53;100387.66;;;15.45;100.00
32237;BME280;18726;44.732;10.550;2023-11-21T04:11:57;100393.88;;;15.35;100.00
32237;BME280;18726;44.732;10.550;2023-11-21T04:15:00;100396.19;;;15.26;100.00
32237;BME280;18726;44.732;10.550;2023-11-21T04:18:04;100398.91;;;15.19;100.00
32237;BME280;18726;44.732;10.550;2023-11-21T04:21:08;100406.38;;;15.29;100.00
32237;BME280;18726;44.732;10.550;2023-11-21T04:24:12;100403.38;;;15.59;100.00
32237;BME280;18726;44.732;10.550;2023-11-21T04:27:15;100397.97;;;15.88;99.44
32237;BME280;18726;44.732;10.550;2023-11-21T04:30:21;100400.34;;;16.10;96.18
32237;BME280;18726;44.732;10.550;2023-11-21T04:33:24;100397.59;;;16.32;94.22
32237;BME280;18726;44.732;10.550;2023-11-21T04:36:28;100399.94;;;16.37;91.70
32237;BME280;18726;44.732;10.550;2023-11-21T04:39:34;100396.44;;;16.43;91.75
32237;BME280;18726;44.732;10.550;2023-11-21T04:42:37;100390.13;;;16.57;90.58
32237;BME280;18726;44.732;10.550;2023-11-21T04:45:41;100384.66;;;16.64;89.47
32237;BME280;18726;44.732;10.550;2023-11-21T04:48:45;100387.41;;;16.68;89.16
32237;BME280;18726;44.732;10.550;2023-11-21T04:55:06;100394.03;;;16.63;88.69
32237;BME280;18726;44.732;10.550;2023-11-21T04:58:12;100403.44;;;16.55;88.22
32237;BME280;18726;44.732;10.550;2023-11-21T05:01:16;100406.59;;;16.57;88.80
32237;BME280;18726;44.732;10.550;2023-11-21T05:04:20;100416.78;;;16.57;89.48
32237;BME280;18726;44.732;10.550;2023-11-21T05:07:25;100423.44;;;16.52;89.90
32237;BME280;18726;44.732;10.550;2023-11-21T05:10:32;100405.81;;;16.17;91.80
32237;BME280;18726;44.732;10.550;2023-11-21T05:13:36;100410.50;;;16.28;92.53
32237;BME280;18726;44.732;10.550;2023-11-21T05:16:39;100404.25;;;16.34;90.40
32237;BME280;18726;44.732;10.550;2023-11-21T05:19:43;100394.84;;;16.32;91.16
32237;BME280;18726;44.732;10.550;2023-11-21T05:22:49;100402.69;;;16.40;90.08
32237;BME280;18726;44.732;10.550;2023-11-21T05:25:52;100405.03;;;16.45;90.57
32237;BME280;18726;44.732;10.550;2023-11-21T05:28:56;100412.84;;;16.47;90.58
32237;BME280;18726;44.732;10.550;2023-11-21T05:32:00;100416.00;;;16.49;90.64
32237;BME280;18726;44.732;10.550;2023-11-21T05:35:04;100419.13;;;16.47;91.02
32237;BME280;18726;44.732;10.550;2023-11-21T05:38:13;100417.56;;;16.36;91.49
32237;BME280;18726;44.732;10.550;2023-11-21T05:41:17;100414.03;;;16.25;93.88
32237;BME280;18726;44.732;10.550;2023-11-21T05:44:21;100407.38;;;16.26;91.71
32237;BME280;18726;44.732;10.550;2023-11-21T05:47:24;100407.38;;;16.36;100.00
32237;BME280;18726;44.732;10.550;2023-11-21T05:50:30;100393.25;;;16.52;100.00
32237;BME280;18726;44.732;10.550;2023-11-21T05:53:34;100394.06;;;16.56;100.00
32237;BME280;18726;44.732;10.550;2023-11-21T05:56:38;100403.47;;;16.05;100.00
32237;BME280;18726;44.732;10.550;2023-11-21T05:59:41;100408.06;;;15.62;100.00
32237;BME280;18726;44.732;10.550;2023-11-21T06:02:45;100412.66;;;15.40;100.00
32237;BME280;18726;44.732;10.550;2023-11-21T06:05:49;100405.78;;;15.89;100.00
32237;BME280;18726;44.732;10.550;2023-11-21T06:08:53;100401.88;;;16.04;100.00
32237;BME280;18726;44.732;10.550;2023-11-21T06:11:57;100396.41;;;16.29;100.00
32237;BME280;18726;44.732;10.550;2023-11-21T06:15:04;100393.25;;;16.52;100.00
32237;BME280;18726;44.732;10.550;2023-11-21T06:18:09;100393.28;;;16.66;100.00
32237;BME280;18726;44.732;10.550;2023-11-21T06:21:14;100385.41;;;16.82;100.00
32237;BME280;18726;44.732;10.550;2023-11-21T06:24:20;100387.34;;;16.93;100.00
32237;BME280;18726;44.732;10.550;2023-11-21T06:27:24;100393.63;;;16.82;100.00
32237;BME280;18726;44.732;10.550;2023-11-21T06:30:28;100397.16;;;16.79;100.00
32237;BME280;18726;44.732;10.550;2023-11-21T06:33:32;100395.97;;;16.95;100.00
32237;BME280;18726;44.732;10.550;2023-11-21T06:36:36;100388.97;;;16.51;100.00
32237;BME280;18726;44.732;10.550;2023-11-21T06:39:40;100390.91;;;15.97;100.00
32237;BME280;18726;44.732;10.550;2023-11-21T06:42:44;100391.13;;;15.32;100.00
32237;BME280;18726;44.732;10.550;2023-11-21T06:45:48;100391.50;;;15.34;100.00
32237;BME280;18726;44.732;10.550;2023-11-21T06:48:52;100378.97;;;15.22;100.00
32237;BME280;18726;44.732;10.550;2023-11-21T06:51:55;100368.75;;;15.12;100.00
32237;BME280;18726;44.732;10.550;2023-11-21T06:54:59;100370.28;;;15.06;100.00
32237;BME280;18726;44.732;10.550;2023-11-21T06:58:03;100366.28;;;14.85;100.00
32237;BME280;18726;44.732;10.550;2023-11-21T07:01:08;100362.44;;;14.94;100.00
32237;BME280;18726;44.732;10.550;2023-11-21T07:04:12;100358.25;;;15.21;100.00
32237;BME280;18726;44.732;10.550;2023-11-21T07:07:15;100358.03;;;15.76;100.00
32237;BME280;18726;44.732;10.550;2023-11-21T07:10:18;100358.44;;;15.99;100.00
32237;BME280;18726;44.732;10.550;2023-11-21T07:13:22;100351.38;;;16.27;100.00
32237;BME280;18726;44.732;10.550;2023-11-21T07:16:26;100351.75;;;16.64;100.00
32237;BME280;18726;44.732;10.550;2023-11-21T07:19:30;100356.00;;;16.83;100.00
32237;BME280;18726;44.732;10.550;2023-11-21T07:22:33;100369.66;;;17.04;100.00
32237;BME280;18726;44.732;10.550;2023-11-21T07:25:37;100374.41;;;16.97;100.00
32237;BME280;18726;44.732;10.550;2023-11-21T07:28:40;100371.34;;;16.66;100.00
32237;BME280;18726;44.732;10.550;2023-11-21T07:31:44;100376.06;;;16.12;100.00
32237;BME280;18726;44.732;10.550;2023-11-21T07:34:48;100367.44;;;15.93;100.00
32237;BME280;18726;44.732;10.550;2023-11-21T07:37:51;100371.31;;;15.70;100.00
32237;BME280;18726;44.732;10.550;2023-11-21T07:40:55;100365.09;;;15.95;100.00
32237;BME280;18726;44.732;10.550;2023-11-21T07:43:58;100374.88;;;16.42;100.00
32237;BME280;18726;44.732;10.550;2023-11-21T07:47:02;100390.16;;;16.71;100.00
32237;BME280;18726;44.732;10.550;2023-11-21T07:50:06;100386.22;;;16.51;100.00
32237;BME280;18726;44.732;10.550;2023-11-21T07:53:10;100390.91;;;16.47;100.00
32237;BME280;18726;44.732;10.550;2023-11-21T07:56:13;100384.28;;;16.69;100.00
32237;BME280;18726;44.732;10.550;2023-11-21T07:59:17;100390.13;;;16.78;100.00
32237;BME280;18726;44.732;10.550;2023-11-21T08:02:21;100394.00;;;16.99;100.00
32237;BME280;18726;44.732;10.550;2023-11-21T08:05:25;100386.84;;;17.23;100.00
32237;BME280;18726;44.732;10.550;2023-11-21T08:08:29;100384.44;;;17.35;100.00
32237;BME280;18726;44.732;10.550;2023-11-21T08:11:32;100393.78;;;17.48;100.00
32237;BME280;18726;44.732;10.550;2023-11-21T08:14:36;100391.44;;;17.50;100.00
32237;BME280;18726;44.732;10.550;2023-11-21T08:17:42;100389.81;;;17.60;100.00
32237;BME280;18726;44.732;10.550;2023-11-21T08:20:46;100390.22;;;17.59;100.00
32237;BME280;18726;44.732;10.550;2023-11-21T08:23:52;100381.94;;;17.66;100.00
32237;BME280;18726;44.732;10.550;2023-11-21T08:26:57;100375.22;;;17.77;100.00
32237;BME280;18726;44.732;10.550;2023-11-21T08:30:05;100374.16;;;17.53;100.00
32237;BME280;18726;44.732;10.550;2023-11-21T08:33:09;100373.63;;;16.89;100.00
32237;BME280;18726;44.732;10.550;2023-11-21T08:36:14;100368.19;;;16.57;100.00
32237;BME280;18726;44.732;10.550;2023-11-21T08:39:18;100377.22;;;16.54;100.00
32237;BME280;18726;44.732;10.550;2023-11-21T08:42:22;100383.84;;;16.88;100.00
32237;BME280;18726;44.732;10.550;2023-11-21T08:45:26;100388.03;;;17.21;100.00
32237;BME280;18726;44.732;10.550;2023-11-21T08:48:30;100386.72;;;17.54;100.00
32237;BME280;18726;44.732;10.550;2023-11-21T08:51:34;100395.22;;;17.78;100.00
32237;BME280;18726;44.732;10.550;2023-11-21T08:54:37;100390.63;;;17.57;100.00
32237;BME280;18726;44.732;10.550;2023-11-21T08:57:43;100387.44;;;17.62;100.00
32237;BME280;18726;44.732;10.550;2023-11-21T09:00:48;100398.00;;;17.71;100.00
32237;BME280;18726;44.732;10.550;2023-11-21T09:03:51;100406.59;;;17.83;100.00
32237;BME280;18726;44.732;10.550;2023-11-21T09:06:55;100412.88;;;17.84;100.00
32237;BME280;18726;44.732;10.550;2023-11-21T09:09:59;100420.81;;;17.61;100.00
32237;BME280;18726;44.732;10.550;2023-11-21T09:13:03;100424.44;;;17.36;100.00
32237;BME280;18726;44.732;10.550;2023-11-21T09:16:07;100424.88;;;17.28;100.00
32237;BME280;18726;44.732;10.550;2023-11-21T09:19:10;100422.94;;;17.21;100.00
32237;BME280;18726;44.732;10.550;2023-11-21T09:22:15;100410.31;;;17.34;100.00
32237;BME280;18726;44.732;10.550;2023-11-21T09:25:19;100402.38;;;17.58;100.00
32237;BME280;18726;44.732;10.550;2023-11-21T09:28:24;100397.59;;;17.76;100.00
32237;BME280;18726;44.732;10.550;2023-11-21T09:31:28;100409.03;;;17.67;100.00
32237;BME280;18726;44.732;10.550;2023-11-21T09:34:31;100402.03;;;17.52;100.00
32237;BME280;18726;44.732;10.550;2023-11-21T09:37:35;100395.66;;;17.62;100.00
32237;BME280;18726;44.732;10.550;2023-11-21T09:40:40;100398.00;;;17.71;100.00
32237;BME280;18726;44.732;10.550;2023-11-21T09:43:46;100388.50;;;17.86;100.00
32237;BME280;18726;44.732;10.550;2023-11-21T09:46:51;100386.78;;;18.10;100.00
32237;BME280;18726;44.732;10.550;2023-11-21T09:50:00;100380.75;;;18.26;100.00
32237;BME280;18726;44.732;10.550;2023-11-21T09:53:17;100379.13;;;18.32;99.03
32237;BME280;18726;44.732;10.550;2023-11-21T09:56:22;100376.97;;;18.05;97.30
32237;BME280;18726;44.732;10.550;2023-11-21T09:59:30;100379.34;;;18.03;100.00
32237;BME280;18726;44.732;10.550;2023-11-21T10:02:35;100357.56;;;18.71;99.62
32237;BME280;18726;44.732;10.550;2023-11-21T10:05:41;100357.97;;;19.04;96.41
32237;BME280;18726;44.732;10.550;2023-11-21T10:08:46;100351.38;;;19.28;95.59
32237;BME280;18726;44.732;10.550;2023-11-21T10:11:50;100351.22;;;19.39;95.84
32237;BME280;18726;44.732;10.550;2023-11-21T10:14:56;100336.94;;;19.47;90.80
32237;BME280;18726;44.732;10.550;2023-11-21T10:18:02;100331.47;;;19.44;91.10
32237;BME280;18726;44.732;10.550;2023-11-21T10:21:07;100334.94;;;19.78;94.81
32237;BME280;18726;44.732;10.550;2023-11-21T10:24:12;100328.94;;;19.60;89.85
32237;BME280;18726;44.732;10.550;2023-11-21T10:27:16;100326.94;;;19.87;91.94
32237;BME280;18726;44.732;10.550;2023-11-21T10:30:19;100321.69;;;19.93;90.99
32237;BME280;18726;44.732;10.550;2023-11-21T10:33:32;100311.28;;;19.81;92.73
32237;BME280;18726;44.732;10.550;2023-11-21T10:36:36;100319.53;;;19.81;91.08
32237;BME280;18726;44.732;10.550;2023-11-21T10:39:39;100312.84;;;19.82;93.94
32237;BME280;18726;44.732;10.550;2023-11-21T10:42:43;100307.28;;;19.59;91.92
32237;BME280;18726;44.732;10.550;2023-11-21T10:45:47;100310.16;;;19.51;89.14
32237;BME280;18726;44.732;10.550;2023-11-21T10:48:54;100298.72;;;19.53;96.72
32237;BME280;18726;44.732;10.550;2023-11-21T10:51:59;100297.97;;;19.76;90.32
32237;BME280;18726;44.732;10.550;2023-11-21T10:55:16;100300.34;;;19.74;95.63
32237;BME280;18726;44.732;10.550;2023-11-21T10:58:19;100308.88;;;19.83;88.38
32237;BME280;18726;44.732;10.550;2023-11-21T11:01:26;100306.94;;;19.57;88.42
32237;BME280;18726;44.732;10.550;2023-11-21T11:04:33;100309.56;;;19.64;88.92
32237;BME280;18726;44.732;10.550;2023-11-21T11:07:39;100297.06;;;19.59;92.53
32237;BME280;18726;44.732;10.550;2023-11-21T11:10:46;100304.09;;;19.33;93.31
32237;BME280;18726;44.732;10.550;2023-11-21T11:13:51;100304.63;;;19.51;93.43
32237;BME280;18726;44.732;10.550;2023-11-21T11:16:57;100300.47;;;19.67;93.51
32237;BME280;18726;44.732;10.550;2023-11-21T11:20:03;100318.31;;;19.59;91.47
32237;BME280;18726;44.732;10.550;2023-11-21T11:23:36;100327.47;;;19.48;92.77
32237;BME280;18726;44.732;10.550;2023-11-21T11:26:58;100331.00;;;19.22;95.98
32237;BME280;18726;44.732;10.550;2023-11-21T11:33:42;100323.28;;;19.10;95.11
32237;BME280;18726;44.732;10.550;2023-11-21T11:37:07;100328.38;;;18.77;97.15
32237;BME280;18726;44.732;10.550;2023-11-21T11:40:15;100323.53;;;18.88;100.00
32237;BME280;18726;44.732;10.550;2023-11-21T11:43:26;100322.53;;;19.06;100.00
32237;BME280;18726;44.732;10.550;2023-11-21T11:46:41;100325.13;;;19.20;94.41
32237;BME280;18726;44.732;10.550;2023-11-21T11:53:33;100321.81;;;19.32;97.98
32237;BME280;18726;44.732;10.550;2023-11-21T11:56:39;100314.00;;;19.27;92.43
32237;BME280;18726;44.732;10.550;2023-11-21T12:00:15;100303.97;;;18.79;92.82
32237;BME280;18726;44.732;10.550;2023-11-21T12:03:20;100311.75;;;18.50;98.24
32237;BME280;18726;44.732;10.550;2023-11-21T12:06:34;100308.50;;;18.21;98.05
32237;BME280;18726;44.732;10.550;2023-11-21T12:09:39;100314.78;;;18.22;100.00
32237;BME280;18726;44.732;10.550;2023-11-21T12:12:45;100313.59;;;17.78;99.13
32237;BME280;18726;44.732;10.550;2023-11-21T12:15:49;100318.56;;;17.94;100.00
32237;BME280;18726;44.732;10.550;2023-11-21T12:18:53;100310.19;;;18.12;100.00
32237;BME280;18726;44.732;10.550;2023-11-21T12:21:57;100309.16;;;18.36;100.00
32237;BME280;18726;44.732;10.550;2023-11-21T12:25:01;100308.91;;;18.61;97.92
32237;BME280;18726;44.732;10.550;2023-11-21T12:28:06;100310.09;;;18.94;99.96
32237;BME280;18726;44.732;10.550;2023-11-21T12:31:10;100316.34;;;18.98;96.13
32237;BME280;18726;44.732;10.550;2023-11-21T12:34:14;100315.38;;;18.44;95.63
32237;BME280;18726;44.732;10.550;2023-11-21T12:37:18;100312.00;;;18.26;99.20
32237;BME280;18726;44.732;10.550;2023-11-21T12:40:21;100310.69;;;18.41;99.07
32237;BME280;18726;44.732;10.550;2023-11-21T12:43:26;100306.53;;;18.63;100.00
32237;BME280;18726;44.732;10.550;2023-11-21T12:46:31;100297.00;;;18.34;96.70
32237;BME280;18726;44.732;10.550;2023-11-21T12:49:37;100296.56;;;18.39;95.78
32237;BME280;18726;44.732;10.550;2023-11-21T12:52:45;100291.53;;;17.89;96.64
32237;BME280;18726;44.732;10.550;2023-11-21T12:55:55;100288.50;;;17.73;99.84
32237;BME280;18726;44.732;10.550;2023-11-21T12:59:01;100283.94;;;17.48;94.94
32237;BME280;18726;44.732;10.550;2023-11-21T13:02:07;100281.75;;;17.22;97.41
32237;BME280;18726;44.732;10.550;2023-11-21T13:05:12;100278.13;;;17.39;98.33
32237;BME280;18726;44.732;10.550;2023-11-21T13:08:25;100278.44;;;17.48;99.82
32237;BME280;18726;44.732;10.550;2023-11-21T13:11:34;100271.44;;;17.40;99.78
32237;BME280;18726;44.732;10.550;2023-11-21T13:14:40;100268.00;;;17.29;100.00
32237;BME280;18726;44.732;10.550;2023-11-21T13:17:44;100264.44;;;17.32;97.83
32237;BME280;18726;44.732;10.550;2023-11-21T13:20:50;100263.72;;;17.21;98.71
32237;BME280;18726;44.732;10.550;2023-11-21T13:23:55;100263.53;;;17.49;100.00
32237;BME280;18726;44.732;10.550;2023-11-21T13:26:59;100275.84;;;17.27;98.76
32237;BME280;18726;44.732;10.550;2023-11-21T13:30:03;100290.06;;;17.08;100.00
32237;BME280;18726;44.732;10.550;2023-11-21T13:33:08;100290.53;;;16.96;100.00
32237;BME280;18726;44.732;10.550;2023-11-21T13:36:12;100290.63;;;16.74;100.00
32237;BME280;18726;44.732;10.550;2023-11-21T13:39:18;100289.13;;;16.38;100.00
32237;BME280;18726;44.732;10.550;2023-11-21T13:42:22;100289.13;;;16.38;100.00
32237;BME280;18726;44.732;10.550;2023-11-21T13:45:28;100288.69;;;16.46;100.00
32237;BME280;18726;44.732;10.550;2023-11-21T13:48:33;100284.81;;;16.23;100.00
32237;BME280;18726;44.732;10.550;2023-11-21T13:51:51;100286.78;;;16.33;100.00
32237;BME280;18726;44.732;10.550;2023-11-21T13:54:58;100284.81;;;16.23;100.00
32237;BME280;18726;44.732;10.550;2023-11-21T13:58:02;100287.19;;;16.20;100.00
32237;BME280;18726;44.732;10.550;2023-11-21T14:01:07;100286.78;;;16.36;100.00
32237;BME280;18726;44.732;10.550;2023-11-21T14:04:28;100297.75;;;16.29;100.00
32237;BME280;18726;44.732;10.550;2023-11-21T14:07:34;100296.22;;;16.14;100.00
32237;BME280;18726;44.732;10.550;2023-11-21T14:10:40;100299.34;;;16.09;100.00
32237;BME280;18726;44.732;10.550;2023-11-21T14:13:46;100291.13;;;16.09;100.00
32237;BME280;18726;44.732;10.550;2023-11-21T14:16:52;100294.63;;;16.24;100.00
32237;BME280;18726;44.732;10.550;2023-11-21T14:19:56;100290.31;;;16.23;100.00
32237;BME280;18726;44.732;10.550;2023-11-21T14:22:59;100287.56;;;16.23;100.00
32237;BME280;18726;44.732;10.550;2023-11-21T14:26:03;100286.78;;;16.26;100.00
32237;BME280;18726;44.732;10.550;2023-11-21T14:29:09;100298.47;;;16.65;100.00
32237;BME280;18726;44.732;10.550;2023-11-21T14:32:16;100295.28;;;16.81;100.00
32237;BME280;18726;44.732;10.550;2023-11-21T14:35:19;100301.59;;;16.71;100.00
32237;BME280;18726;44.732;10.550;2023-11-21T14:38:23;100293.75;;;16.69;100.00
32237;BME280;18726;44.732;10.550;2023-11-21T14:41:27;100297.47;;;17.18;100.00
32237;BME280;18726;44.732;10.550;2023-11-21T14:44:32;100295.31;;;17.50;100.00
32237;BME280;18726;44.732;10.550;2023-11-21T14:47:41;100300.25;;;17.77;100.00
32237;BME280;18726;44.732;10.550;2023-11-21T14:50:50;100299.31;;;17.94;100.00
32237;BME280;18726;44.732;10.550;2023-11-21T14:54:05;100300.81;;;18.02;100.00
32237;BME280;18726;44.732;10.550;2023-11-21T14:57:13;100308.88;;;17.79;98.15
32237;BME280;18726;44.732;10.550;2023-11-21T15:00:21;100312.81;;;17.78;100.00
32237;BME280;18726;44.732;10.550;2023-11-21T15:03:37;100301.88;;;17.67;100.00
32237;BME280;18726;44.732;10.550;2023-11-21T15:06:47;100305.75;;;17.77;100.00
32237;BME280;18726;44.732;10.550;2023-11-21T15:09:51;100313.00;;;18.01;100.00
32237;BME280;18726;44.732;10.550;2023-11-21T15:12:57;100312.19;;;18.04;100.00
32237;BME280;18726;44.732;10.550;2023-11-21T15:16:01;100319.25;;;18.05;100.00
32237;BME280;18726;44.732;10.550;2023-11-21T15:19:11;100327.56;;;17.98;100.00
32237;BME280;18726;44.732;10.550;2023-11-21T15:22:21;100314.28;;;17.90;100.00
32237;BME280;18726;44.732;10.550;2023-11-21T15:25:25;100313.50;;;17.89;100.00
32237;BME280;18726;44.732;10.550;2023-11-21T15:28:29;100315.00;;;17.97;100.00
32237;BME280;18726;44.732;10.550;2023-11-21T15:31:32;100322.78;;;18.06;100.00
32237;BME280;18726;44.732;10.550;2023-11-21T15:34:37;100322.81;;;18.02;100.00
32237;BME280;18726;44.732;10.550;2023-11-21T15:37:42;100329.88;;;18.03;100.00
32237;BME280;18726;44.732;10.550;2023-11-21T15:40:47;100327.13;;;18.03;100.00
32237;BME280;18726;44.732;10.550;2023-11-21T15:43:51;100332.28;;;17.98;100.00
32237;BME280;18726;44.732;10.550;2023-11-21T15:46:54;100339.34;;;17.99;100.00
32237;BME280;18726;44.732;10.550;2023-11-21T15:49:59;100340.69;;;17.76;100.00
32237;BME280;18726;44.732;10.550;2023-11-21T15:53:02;100346.66;;;17.61;99.75
32237;BME280;18726;44.732;10.550;2023-11-21T15:56:09;100354.34;;;17.07;100.00
32237;BME280;18726;44.732;10.550;2023-11-21T15:59:16;100357.22;;;16.50;100.00